This is the latest recevied weather packets stored in our database for station/object K4XP. If no packets are shown the sender has not sent any weather packets the latest 1 day(s).
| Time | Temp. | Humidity | Pressure | Rain* | Wind** | Luminosity | Snow |
|---|---|---|---|---|---|---|---|
| 1778095820 | 24.44° C | 69% | 1013.1 hPa | 0 mm | - | - | - |
| 1778095214 | 23.89° C | 71% | 1013.2 hPa | 0 mm | - | - | - |
| 1778093712 | 23.33° C | 72% | 1013.2 hPa | 0 mm | - | - | - |
| 1778093412 | 23.89° C | 71% | 1013.3 hPa | 0 mm | - | - | - |
| 1778093128 | 23.33° C | 72% | 1013.4 hPa | 0 mm | - | - | - |
| 1778092824 | 23.33° C | 73% | 1013.3 hPa | 0 mm | - | - | - |
| 1778090716 | 22.22° C | 74% | 1013.1 hPa | 0 mm | - | - | - |
| 1778089821 | 22.22° C | 77% | 1013.3 hPa | 0.51 mm | - | - | - |
| 1778089217 | 21.67° C | 78% | 1013.6 hPa | 0.51 mm | - | - | - |
| 1778088913 | 21.11° C | 80% | 1013.4 hPa | 0.51 mm | - | - | - |
| 1778088022 | 20.56° C | 85% | 1014.7 hPa | 0.51 mm | - | - | - |
| 1778087414 | 20° C | 83% | 1014.9 hPa | 0.51 mm | - | - | - |
| 1778085916 | 21.11° C | 75% | 1014.8 hPa | 0 mm | - | - | - |
| 1778084724 | 21.11° C | 76% | 1014.8 hPa | 0 mm | - | - | - |
| 1778083813 | 21.67° C | 73% | 1014.9 hPa | 0 mm | - | - | - |
| 1778083225 | 21.67° C | 73% | 1014.8 hPa | 0 mm | - | - | - |
| 1778082921 | 21.67° C | 72% | 1014.9 hPa | 0 mm | - | - | - |
| 1778081722 | 21.11° C | 73% | 1014.6 hPa | 0 mm | - | - | - |
| 1778081416 | 21.11° C | 73% | 1014.5 hPa | 0 mm | - | - | - |
| 1778081111 | 21.11° C | 73% | 1014.3 hPa | 0 mm | - | - | - |
| 1778080825 | 21.11° C | 74% | 1014.4 hPa | 0 mm | - | - | - |
| 1778080220 | 20.56° C | 76% | 1014.4 hPa | 0 mm | - | - | - |
| 1778077217 | 19.44° C | 77% | 1013.8 hPa | 0 mm | - | - | - |
| 1778076913 | 19.44° C | 78% | 1013.9 hPa | 0 mm | - | - | - |
| 1778076026 | 19.44° C | 78% | 1014 hPa | 0 mm | - | - | - |
* Rain latest hour (hover to see other rain measurements)
** Current wind speed in m/s (hover to see current wind gust speed)